メインページ
METAR-TAF:

METAR-TAF

空港 :

ケベック・ジャン・ルサージ国際空港

ケベック・シティー, ケベック州, カナダ

緯度: 46-48N, 経度: 071-23W, 海抜: 70m

現時点の気象観測

当レポートは20分前の14:00(UTC)に作成
西の風 7kt、から西/北西の間で変化する
気温 23°C
湿度 61%
気圧 1021 hPa
視程: 48.3km
高度12000ftの雲はほとんどない
高度25000ftの雲は散在している

METAR: CYQB 201400Z 27007KT 190V290 30SM FEW120 SCT250 23/15 A3016 RMK AC1CI3 AC TR SLP214 DENSITY ALT 1000FT

時間: 10:20 (14:20 UTC)

予報

当レポートは2時間42分前の11:38(UTC)に作成
予報は20日の 12時(UTC)から 21日の 12時(UTC)まで有効
変向風 3kt
視程: 10km
晴天
20日の 13時(UTC)から 20日の 15時(UTC)まで徐々に
南西の風 10kt
21日の 00時(UTC)から 21日の 02時(UTC)まで徐々に
北東の風 5kt

TAF: CYQB 201138Z 2012/2112 VRB03KT P6SM SKC BECMG 2013/2015 23010KT BECMG 2100/2102 05005KT RMK NXT FCST BY 201800Z

4,000以上の空港の気象観測と天気予報(METAR報とTAF報)

利用可能な観測所は地図上に黄色い丸と赤い丸で示す。

丸の上にカーソルを重ねると観測所名を参照できる。

次にクリックすると気象観測と天気予報を参照できる。

マップの切り替え:黒色「×」印の緑ボタンをクリックして拡大、「-」印の緑ボタンをクリックして縮小、緑色の三角印をクリックして隣りの地図に切り替え


METAR-TAF: